Time;durP1;ratioP1;P1;durP2;ratioP2;P2;SDS_P1;SDS_P2;PMS_P1;PMS_P2;Temp;Humidity;BMP_temperature;BMP_pressure;BME280_temperature;BME280_humidity;BME280_pressure;Samples;Min_cycle;Max_cycle;Signal;HPM_P1;HPM_P2
2023/07/19 00:00:16;;;;;;;2.25;1.65;;;;;;;;;;5048993;28;20045;-85
2023/07/19 00:02:42;;;;;;;2.25;1.88;;;;;;;;;;5043727;28;20119;-85
2023/07/19 00:05:09;;;;;;;3.50;1.85;;;;;;;;;;5062126;28;20132;-85
2023/07/19 00:07:35;;;;;;;2.30;1.92;;;;;;;;;;5062242;28;20394;-85
2023/07/19 00:10:01;;;;;;;2.55;2.22;;;;;;;;;;5030177;28;20072;-85
2023/07/19 00:12:27;;;;;;;3.20;2.00;;;;;;;;;;5065547;28;20672;-86
2023/07/19 00:14:53;;;;;;;2.58;1.90;;;;;;;;;;5031435;28;20382;-88
2023/07/19 00:17:19;;;;;;;2.50;2.10;;;;;;;;;;5038848;28;20044;-88
2023/07/19 00:19:45;;;;;;;4.47;1.95;;;;;;;;;;5060606;28;20046;-88
2023/07/19 00:22:11;;;;;;;5.05;2.55;;;;;;;;;;5068798;28;20033;-88
2023/07/19 00:24:37;;;;;;;2.95;2.20;;;;;;;;;;5061165;28;20214;-88
2023/07/19 00:27:03;;;;;;;3.15;2.20;;;;;;;;;;5033295;28;20041;-88
2023/07/19 00:29:29;;;;;;;3.00;2.10;;;;;;;;;;5039065;28;20120;-88
2023/07/19 00:31:55;;;;;;;2.78;2.03;;;;;;;;;;5076838;28;20041;-88
2023/07/19 00:34:21;;;;;;;4.60;2.22;;;;;;;;;;5032451;28;20044;-88
2023/07/19 00:36:47;;;;;;;4.22;2.20;;;;;;;;;;5050078;28;20044;-88
2023/07/19 00:39:13;;;;;;;3.80;2.10;;;;;;;;;;5048563;28;20079;-88
2023/07/19 00:41:39;;;;;;;2.42;2.22;;;;;;;;;;5062345;28;20040;-88
2023/07/19 00:44:06;;;;;;;4.25;2.33;;;;;;;;;;5020541;28;20091;-88
2023/07/19 00:46:33;;;;;;;3.58;2.35;;;;;;;;;;5061335;28;20045;-88
2023/07/19 00:49:00;;;;;;;3.72;2.58;;;;;;;;;;5061997;28;20124;-88
2023/07/19 00:51:26;;;;;;;5.03;2.53;;;;;;;;;;5029292;28;20069;-88
2023/07/19 00:53:53;;;;;;;2.75;2.40;;;;;;;;;;5060132;28;20043;-88
2023/07/19 00:56:20;;;;;;;4.07;2.75;;;;;;;;;;5046712;28;20053;-88
2023/07/19 00:58:48;;;;;;;2.67;1.98;;;;;;;;;;5049314;28;20429;-88
2023/07/19 01:01:14;;;;;;;6.45;2.78;;;;;;;;;;5048834;28;20084;-87
2023/07/19 01:03:40;;;;;;;3.20;2.35;;;;;;;;;;5044966;28;20099;-88
2023/07/19 01:06:07;;;;;;;3.20;2.40;;;;;;;;;;5048620;28;20394;-87
2023/07/19 01:08:33;;;;;;;2.65;2.20;;;;;;;;;;5043776;28;20128;-86
2023/07/19 01:10:59;;;;;;;2.97;2.03;;;;;;;;;;5065850;28;20040;-86
2023/07/19 01:13:25;;;;;;;4.45;2.35;;;;;;;;;;5053488;28;20117;-86
2023/07/19 01:15:51;;;;;;;2.80;2.40;;;;;;;;;;5068652;28;20049;-87
2023/07/19 01:18:18;;;;;;;2.72;2.00;;;;;;;;;;5068842;28;20044;-87
2023/07/19 01:20:44;;;;;;;4.15;2.40;;;;;;;;;;5067716;28;20048;-86
2023/07/19 01:23:10;;;;;;;2.75;2.40;;;;;;;;;;5053011;28;20034;-86
2023/07/19 01:25:37;;;;;;;3.00;2.28;;;;;;;;;;5032417;28;20654;-86
2023/07/19 01:28:03;;;;;;;4.82;2.67;;;;;;;;;;5044771;28;20038;-86
2023/07/19 01:30:29;;;;;;;3.47;2.40;;;;;;;;;;5067066;28;20037;-86
2023/07/19 01:32:55;;;;;;;4.78;2.30;;;;;;;;;;5063724;28;20091;-86
2023/07/19 01:35:21;;;;;;;2.72;2.05;;;;;;;;;;5047776;28;20037;-87
2023/07/19 01:37:47;;;;;;;5.28;2.10;;;;;;;;;;5031765;28;20041;-86
2023/07/19 01:40:14;;;;;;;2.90;2.35;;;;;;;;;;5029336;28;20041;-86
2023/07/19 01:42:40;;;;;;;5.32;2.83;;;;;;;;;;5029096;28;20128;-86
2023/07/19 01:45:07;;;;;;;2.78;2.58;;;;;;;;;;5048098;28;20036;-87
2023/07/19 01:47:33;;;;;;;4.15;2.33;;;;;;;;;;5065906;28;20044;-86
2023/07/19 01:49:59;;;;;;;2.80;1.95;;;;;;;;;;5064089;28;20456;-86
2023/07/19 01:52:25;;;;;;;2.22;2.03;;;;;;;;;;5045527;28;20041;-86
2023/07/19 01:54:51;;;;;;;3.17;2.13;;;;;;;;;;5049731;28;20123;-86
2023/07/19 01:57:17;;;;;;;3.40;2.60;;;;;;;;;;5067642;28;20393;-86
2023/07/19 01:59:44;;;;;;;3.72;2.42;;;;;;;;;;5068967;28;20087;-86
2023/07/19 02:02:10;;;;;;;3.92;2.30;;;;;;;;;;5067720;28;20119;-87
2023/07/19 02:04:36;;;;;;;3.10;2.60;;;;;;;;;;5041584;28;20033;-85
2023/07/19 02:07:02;;;;;;;4.20;2.63;;;;;;;;;;5063167;28;20057;-86
2023/07/19 02:09:28;;;;;;;2.75;2.42;;;;;;;;;;5032266;28;20124;-82
2023/07/19 02:11:54;;;;;;;3.45;2.45;;;;;;;;;;5032153;28;20104;-89
2023/07/19 02:14:20;;;;;;;3.53;2.78;;;;;;;;;;5063017;28;20049;-86
2023/07/19 02:16:46;;;;;;;4.22;3.50;;;;;;;;;;5064766;28;20123;-86
2023/07/19 02:19:12;;;;;;;4.20;2.50;;;;;;;;;;5031157;28;20057;-86
2023/07/19 02:21:38;;;;;;;5.15;2.63;;;;;;;;;;5029734;28;20605;-87
2023/07/19 02:24:04;;;;;;;3.55;2.90;;;;;;;;;;5035313;28;20078;-86
2023/07/19 02:26:30;;;;;;;3.60;2.80;;;;;;;;;;5044007;28;20068;-87
2023/07/19 02:28:56;;;;;;;2.83;2.38;;;;;;;;;;5070286;28;20045;-86
2023/07/19 02:31:22;;;;;;;3.28;2.70;;;;;;;;;;5061302;28;20047;-86
2023/07/19 02:33:48;;;;;;;3.58;2.47;;;;;;;;;;5039525;28;20098;-87
2023/07/19 02:36:15;;;;;;;3.80;2.90;;;;;;;;;;5050588;28;20064;-86
2023/07/19 02:38:43;;;;;;;2.58;2.38;;;;;;;;;;5050109;28;20037;-87
2023/07/19 02:41:10;;;;;;;4.60;3.00;;;;;;;;;;5040303;28;20057;-86
2023/07/19 02:43:36;;;;;;;3.80;2.40;;;;;;;;;;5062798;28;20041;-86
2023/07/19 02:46:02;;;;;;;2.92;2.42;;;;;;;;;;5064169;28;20043;-87
2023/07/19 02:48:28;;;;;;;2.67;2.40;;;;;;;;;;5046491;28;20038;-87
2023/07/19 02:50:54;;;;;;;3.35;2.88;;;;;;;;;;5075645;28;20048;-87
2023/07/19 02:53:20;;;;;;;4.47;2.88;;;;;;;;;;5050843;28;20044;-87
2023/07/19 02:55:46;;;;;;;3.97;2.80;;;;;;;;;;5050188;28;20041;-87
2023/07/19 02:58:13;;;;;;;3.03;2.33;;;;;;;;;;5047821;28;20045;-87
2023/07/19 03:00:40;;;;;;;4.35;3.30;;;;;;;;;;5038753;28;20053;-87
2023/07/19 03:03:06;;;;;;;3.00;2.70;;;;;;;;;;5032029;28;20049;-87
2023/07/19 03:05:34;;;;;;;4.45;3.00;;;;;;;;;;5029562;28;20142;-87
2023/07/19 03:08:01;;;;;;;4.53;3.10;;;;;;;;;;5031450;28;20088;-87
2023/07/19 03:10:27;;;;;;;3.55;3.22;;;;;;;;;;5029857;28;20041;-87
2023/07/19 03:12:53;;;;;;;3.15;2.80;;;;;;;;;;5029442;28;20112;-86
2023/07/19 03:15:19;;;;;;;4.90;2.72;;;;;;;;;;5033627;28;20033;-87
2023/07/19 03:17:45;;;;;;;4.25;3.20;;;;;;;;;;5049398;28;20466;-87
2023/07/19 03:20:11;;;;;;;4.28;2.90;;;;;;;;;;5049903;28;20363;-87
2023/07/19 03:22:37;;;;;;;4.53;3.10;;;;;;;;;;5036549;28;20103;-86
2023/07/19 03:25:05;;;;;;;4.47;3.50;;;;;;;;;;5063282;28;20049;-87
2023/07/19 03:27:31;;;;;;;4.10;3.63;;;;;;;;;;5031577;28;20132;-86
2023/07/19 03:29:57;;;;;;;5.85;3.58;;;;;;;;;;5049630;28;20100;-87
2023/07/19 03:32:23;;;;;;;3.88;3.17;;;;;;;;;;5049554;28;20378;-87
2023/07/19 03:34:49;;;;;;;5.15;2.95;;;;;;;;;;5048923;28;20481;-87
2023/07/19 03:37:15;;;;;;;3.70;3.28;;;;;;;;;;5049521;28;20040;-87
2023/07/19 03:39:41;;;;;;;5.43;3.17;;;;;;;;;;5048852;28;20041;-87
2023/07/19 03:42:08;;;;;;;5.63;3.35;;;;;;;;;;5041553;28;20044;-87
2023/07/19 03:44:34;;;;;;;3.28;2.78;;;;;;;;;;5049685;28;20042;-86
2023/07/19 03:47:00;;;;;;;5.13;3.70;;;;;;;;;;5050330;28;20051;-87
2023/07/19 03:49:26;;;;;;;3.72;3.30;;;;;;;;;;5048540;28;20124;-87
2023/07/19 03:51:52;;;;;;;7.97;3.78;;;;;;;;;;5049749;28;20051;-87
2023/07/19 03:54:18;;;;;;;4.57;3.60;;;;;;;;;;5048530;28;20040;-87
2023/07/19 03:56:44;;;;;;;5.30;3.53;;;;;;;;;;5068227;28;20037;-86
2023/07/19 03:59:10;;;;;;;3.78;3.47;;;;;;;;;;5039634;28;20045;-86
2023/07/19 04:01:37;;;;;;;4.07;3.67;;;;;;;;;;5027747;28;20041;-88
2023/07/19 04:04:03;;;;;;;4.13;3.53;;;;;;;;;;5040383;28;20044;-88
2023/07/19 04:06:29;;;;;;;5.63;4.50;;;;;;;;;;5048777;28;20398;-87
2023/07/19 04:08:55;;;;;;;6.13;4.13;;;;;;;;;;5049039;28;20478;-86
2023/07/19 04:11:22;;;;;;;4.28;3.83;;;;;;;;;;5039103;28;20040;-86
2023/07/19 04:13:48;;;;;;;5.65;4.35;;;;;;;;;;5028546;28;20429;-86
2023/07/19 04:16:14;;;;;;;6.47;3.80;;;;;;;;;;5030250;28;20048;-86
2023/07/19 04:18:40;;;;;;;5.90;4.07;;;;;;;;;;5035474;28;20052;-86
2023/07/19 04:21:06;;;;;;;5.85;4.32;;;;;;;;;;5035373;28;20041;-86
2023/07/19 04:23:32;;;;;;;4.47;4.07;;;;;;;;;;5080521;28;20050;-86
2023/07/19 04:25:58;;;;;;;5.25;4.07;;;;;;;;;;5048827;28;20087;-86
2023/07/19 04:28:24;;;;;;;5.20;4.30;;;;;;;;;;5048178;28;20041;-86
2023/07/19 04:30:50;;;;;;;6.78;4.75;;;;;;;;;;5048559;28;20114;-86
2023/07/19 04:33:16;;;;;;;5.63;4.65;;;;;;;;;;5016911;28;20037;-86
2023/07/19 04:35:42;;;;;;;6.45;4.07;;;;;;;;;;5033696;28;20045;-86
2023/07/19 04:38:08;;;;;;;7.97;4.88;;;;;;;;;;5030397;28;20136;-88
2023/07/19 04:40:34;;;;;;;5.55;4.68;;;;;;;;;;5050366;28;20078;-86
2023/07/19 04:43:01;;;;;;;5.70;5.07;;;;;;;;;;5040342;28;20482;-86
2023/07/19 04:45:27;;;;;;;7.00;5.35;;;;;;;;;;5061323;28;20043;-86
2023/07/19 04:47:53;;;;;;;9.07;5.20;;;;;;;;;;5061010;28;20120;-86
2023/07/19 04:50:19;;;;;;;7.10;5.40;;;;;;;;;;5029813;28;20133;-86
2023/07/19 04:52:46;;;;;;;5.00;4.13;;;;;;;;;;5047992;28;20120;-86
2023/07/19 04:55:12;;;;;;;8.45;4.65;;;;;;;;;;5048483;28;20045;-86
2023/07/19 04:57:38;;;;;;;7.18;4.45;;;;;;;;;;5043007;28;20041;-87
2023/07/19 05:00:05;;;;;;;8.07;5.00;;;;;;;;;;5061666;28;20049;-86
2023/07/19 05:02:31;;;;;;;4.82;3.97;;;;;;;;;;5069771;28;20044;-87
2023/07/19 05:04:57;;;;;;;6.40;5.35;;;;;;;;;;5043930;28;20531;-87
2023/07/19 05:07:23;;;;;;;7.40;4.63;;;;;;;;;;5047749;28;20084;-87
2023/07/19 05:09:49;;;;;;;4.97;4.07;;;;;;;;;;5048181;28;20036;-86
2023/07/19 05:12:16;;;;;;;6.00;4.53;;;;;;;;;;5042386;28;20115;-86
2023/07/19 05:14:42;;;;;;;8.93;5.00;;;;;;;;;;5044110;28;20080;-86
2023/07/19 05:17:08;;;;;;;6.40;4.40;;;;;;;;;;5044409;28;20045;-87
2023/07/19 05:19:34;;;;;;;6.32;4.63;;;;;;;;;;5056739;28;20036;-85
2023/07/19 05:22:00;;;;;;;5.65;4.07;;;;;;;;;;5032504;28;20128;-86
2023/07/19 05:24:26;;;;;;;6.25;4.40;;;;;;;;;;5066208;28;20041;-88
2023/07/19 05:26:52;;;;;;;5.90;4.07;;;;;;;;;;5037365;28;20044;-86
2023/07/19 05:29:18;;;;;;;4.40;3.53;;;;;;;;;;5066228;28;20066;-90
2023/07/19 05:31:44;;;;;;;6.90;3.33;;;;;;;;;;5053492;28;20048;-88
2023/07/19 05:34:10;;;;;;;6.25;3.05;;;;;;;;;;5037722;28;20446;-91
2023/07/19 05:36:37;;;;;;;5.05;3.67;;;;;;;;;;5028994;28;20398;-89
2023/07/19 05:39:04;;;;;;;5.72;3.80;;;;;;;;;;5028578;28;20470;-88
2023/07/19 05:41:30;;;;;;;4.43;3.40;;;;;;;;;;5052459;28;20098;-91
2023/07/19 05:43:57;;;;;;;5.57;3.67;;;;;;;;;;5064891;28;20063;-91
2023/07/19 05:46:24;;;;;;;5.97;3.40;;;;;;;;;;5051413;28;20041;-89
2023/07/19 05:48:50;;;;;;;5.90;3.67;;;;;;;;;;5050684;28;20432;-88
2023/07/19 05:51:16;;;;;;;3.78;3.42;;;;;;;;;;5050367;28;20037;-88
2023/07/19 05:53:42;;;;;;;4.60;3.95;;;;;;;;;;5052354;28;20037;-87
2023/07/19 05:56:08;;;;;;;7.25;3.35;;;;;;;;;;5056484;28;20036;-87
2023/07/19 05:58:34;;;;;;;3.40;3.00;;;;;;;;;;5051918;28;20041;-87
2023/07/19 06:01:00;;;;;;;4.43;2.85;;;;;;;;;;5037968;28;20048;-89
2023/07/19 06:03:26;;;;;;;3.38;3.08;;;;;;;;;;5059984;28;20047;-91
2023/07/19 06:05:52;;;;;;;2.95;2.38;;;;;;;;;;5040529;28;20136;-89
2023/07/19 06:08:18;;;;;;;3.25;2.53;;;;;;;;;;5042901;28;20045;-91
2023/07/19 06:10:44;;;;;;;3.70;2.22;;;;;;;;;;5051759;28;20052;-89
2023/07/19 06:13:14;;;;;;;4.25;2.00;;;;;;;;;;5042649;28;20059;-91
2023/07/19 06:15:40;;;;;;;3.20;2.17;;;;;;;;;;5052619;28;20079;-85
2023/07/19 06:18:06;;;;;;;2.83;2.20;;;;;;;;;;5057635;28;20079;-90
2023/07/19 06:20:32;;;;;;;4.93;2.10;;;;;;;;;;5041709;28;20045;-90
2023/07/19 06:22:58;;;;;;;3.13;1.98;;;;;;;;;;5042689;28;20042;-89
2023/07/19 06:25:24;;;;;;;3.08;2.15;;;;;;;;;;5045126;28;20037;-92
2023/07/19 06:27:50;;;;;;;1.83;1.63;;;;;;;;;;5051033;28;20045;-84
2023/07/19 06:30:16;;;;;;;3.83;2.20;;;;;;;;;;5050816;28;20044;-84
2023/07/19 06:32:42;;;;;;;3.78;2.25;;;;;;;;;;5065704;28;20450;-85
2023/07/19 06:35:09;;;;;;;3.33;2.00;;;;;;;;;;5043587;28;20083;-84
2023/07/19 06:37:35;;;;;;;2.22;1.83;;;;;;;;;;5035003;28;20040;-84
2023/07/19 06:40:04;;;;;;;3.88;2.85;;;;;;;;;;5068824;28;20036;-85
2023/07/19 06:42:32;;;;;;;2.63;1.98;;;;;;;;;;5063786;28;20101;-84
2023/07/19 06:44:58;;;;;;;3.15;1.83;;;;;;;;;;5041309;28;20038;-84
2023/07/19 06:47:26;;;;;;;3.47;2.67;;;;;;;;;;5050704;28;20119;-84
2023/07/19 06:49:52;;;;;;;2.50;2.05;;;;;;;;;;5066688;28;20116;-84
2023/07/19 06:52:18;;;;;;;2.97;2.22;;;;;;;;;;5048706;28;20044;-88
2023/07/19 06:54:44;;;;;;;3.45;1.88;;;;;;;;;;5044237;28;20040;-86
2023/07/19 06:57:10;;;;;;;2.40;1.92;;;;;;;;;;5060770;28;20037;-90
2023/07/19 06:59:36;;;;;;;5.60;2.53;;;;;;;;;;5050189;28;20131;-87
2023/07/19 07:02:02;;;;;;;2.78;1.70;;;;;;;;;;5049694;28;20040;-91
2023/07/19 07:04:28;;;;;;;2.45;1.30;;;;;;;;;;5032625;28;20073;-87
2023/07/19 07:06:54;;;;;;;3.70;1.60;;;;;;;;;;5018519;28;20065;-88
2023/07/19 07:09:20;;;;;;;3.00;1.30;;;;;;;;;;5064463;28;20068;-90
2023/07/19 07:11:46;;;;;;;2.45;1.40;;;;;;;;;;5049948;28;20135;-89
2023/07/19 07:14:12;;;;;;;2.83;1.48;;;;;;;;;;5061971;28;20090;-89
2023/07/19 07:16:38;;;;;;;3.92;1.55;;;;;;;;;;5040579;28;20048;-87
2023/07/19 07:19:04;;;;;;;2.40;1.30;;;;;;;;;;5041471;28;20363;-88
2023/07/19 07:21:31;;;;;;;1.75;1.45;;;;;;;;;;5049248;28;20040;-88
2023/07/19 07:23:57;;;;;;;4.45;1.58;;;;;;;;;;5051342;28;20405;-87
2023/07/19 07:26:23;;;;;;;1.45;1.15;;;;;;;;;;5043146;28;20489;-88
2023/07/19 07:28:49;;;;;;;3.72;1.65;;;;;;;;;;5049457;28;20067;-92
2023/07/19 07:31:15;;;;;;;4.10;1.65;;;;;;;;;;5050393;28;20044;-91
2023/07/19 07:33:41;;;;;;;3.60;1.75;;;;;;;;;;5049122;28;20045;-91
2023/07/19 07:36:07;;;;;;;1.88;1.00;;;;;;;;;;5047395;28;20432;-88
2023/07/19 07:38:33;;;;;;;3.92;1.58;;;;;;;;;;5038101;28;21481;-87
2023/07/19 07:41:00;;;;;;;3.63;1.25;;;;;;;;;;5034356;28;20033;-84
2023/07/19 07:43:26;;;;;;;2.45;1.50;;;;;;;;;;5033989;28;20041;-83
2023/07/19 07:45:55;;;;;;;2.50;1.73;;;;;;;;;;5035969;28;20045;-85
2023/07/19 07:48:22;;;;;;;3.33;1.73;;;;;;;;;;5046911;28;20064;-84
2023/07/19 07:50:49;;;;;;;4.07;1.70;;;;;;;;;;5045483;28;20053;-84
2023/07/19 07:53:15;;;;;;;4.00;2.08;;;;;;;;;;5062059;28;20498;-86
2023/07/19 07:55:41;;;;;;;2.75;1.25;;;;;;;;;;5047753;28;20036;-89
2023/07/19 07:58:07;;;;;;;2.03;1.50;;;;;;;;;;5051122;28;20044;-89
2023/07/19 08:00:33;;;;;;;2.45;1.65;;;;;;;;;;5059205;28;20048;-88
2023/07/19 08:02:59;;;;;;;3.78;2.13;;;;;;;;;;5069142;28;20051;-87
2023/07/19 08:05:27;;;;;;;2.85;1.80;;;;;;;;;;5039843;28;20034;-88
2023/07/19 08:07:53;;;;;;;3.55;1.58;;;;;;;;;;5029036;28;20156;-88
2023/07/19 08:10:19;;;;;;;4.25;1.58;;;;;;;;;;5029770;28;20050;-86
2023/07/19 08:12:45;;;;;;;5.85;2.75;;;;;;;;;;5028837;28;20065;-87
2023/07/19 08:15:11;;;;;;;2.47;1.38;;;;;;;;;;5036493;28;20064;-87
2023/07/19 08:17:37;;;;;;;2.42;1.40;;;;;;;;;;5041587;28;20055;-87
2023/07/19 08:20:05;;;;;;;2.03;1.40;;;;;;;;;;5049074;28;20045;-86
2023/07/19 08:22:33;;;;;;;4.60;1.58;;;;;;;;;;5049909;28;20055;-88
2023/07/19 08:24:59;;;;;;;3.33;1.50;;;;;;;;;;5035542;28;20045;-89
2023/07/19 08:27:26;;;;;;;2.78;1.23;;;;;;;;;;5061990;28;20090;-89
2023/07/19 08:29:52;;;;;;;1.55;1.30;;;;;;;;;;5062473;28;20045;-87
2023/07/19 08:32:19;;;;;;;1.70;1.13;;;;;;;;;;5029631;28;20037;-89
2023/07/19 08:34:45;;;;;;;2.60;1.70;;;;;;;;;;5029074;28;20045;-87
2023/07/19 08:37:11;;;;;;;2.22;1.15;;;;;;;;;;5029230;28;20091;-88
2023/07/19 08:39:37;;;;;;;2.80;1.05;;;;;;;;;;5027981;28;20042;-88
2023/07/19 08:42:03;;;;;;;4.57;1.23;;;;;;;;;;5030122;28;20068;-91
2023/07/19 08:44:30;;;;;;;2.47;1.27;;;;;;;;;;5028455;28;20401;-89
2023/07/19 08:46:56;;;;;;;2.88;1.60;;;;;;;;;;5029723;28;20056;-85
2023/07/19 08:49:22;;;;;;;1.77;1.40;;;;;;;;;;5029644;28;20076;-87
2023/07/19 08:51:48;;;;;;;2.20;1.10;;;;;;;;;;5028198;28;20042;-85
2023/07/19 08:54:14;;;;;;;2.40;1.45;;;;;;;;;;5061162;28;20128;-87
2023/07/19 08:56:41;;;;;;;2.53;0.90;;;;;;;;;;5029446;28;20413;-89
2023/07/19 08:59:07;;;;;;;2.65;1.52;;;;;;;;;;5029889;28;20047;-87
2023/07/19 09:01:34;;;;;;;1.88;1.20;;;;;;;;;;5061383;28;20136;-89
2023/07/19 09:04:00;;;;;;;2.72;1.48;;;;;;;;;;5078896;28;20535;-90
2023/07/19 09:06:30;;;;;;;3.65;1.00;;;;;;;;;;5049131;28;20548;-87
2023/07/19 09:08:57;;;;;;;3.92;1.10;;;;;;;;;;5049262;28;20504;-91
2023/07/19 09:11:23;;;;;;;2.67;1.25;;;;;;;;;;5048777;28;20107;-89
2023/07/19 09:13:53;;;;;;;1.88;1.00;;;;;;;;;;5031436;28;20041;-85
2023/07/19 09:16:26;;;;;;;1.98;1.00;;;;;;;;;;5060471;28;20565;-87
2023/07/19 09:18:53;;;;;;;3.92;1.20;;;;;;;;;;5061520;28;20038;-88
2023/07/19 09:21:30;;;;;;;2.80;1.20;;;;;;;;;;5060808;28;20128;-86
2023/07/19 09:23:56;;;;;;;2.08;0.95;;;;;;;;;;5077168;28;20450;-86
2023/07/19 09:26:22;;;;;;;3.33;1.10;;;;;;;;;;5048842;28;20048;-87
2023/07/19 09:28:48;;;;;;;3.60;1.08;;;;;;;;;;5047845;28;20512;-88
2023/07/19 09:31:15;;;;;;;1.17;0.93;;;;;;;;;;5048037;28;20037;-87
2023/07/19 09:33:41;;;;;;;0.55;0.55;;;;;;;;;;5049075;28;20055;-86
2023/07/19 09:36:07;;;;;;;2.63;0.75;;;;;;;;;;5047755;28;20235;-85
2023/07/19 09:38:33;;;;;;;2.60;0.90;;;;;;;;;;5047399;28;20556;-86
2023/07/19 09:40:59;;;;;;;2.03;0.70;;;;;;;;;;5049101;28;20033;-85
2023/07/19 09:43:25;;;;;;;2.97;0.98;;;;;;;;;;5035793;28;20420;-87
2023/07/19 09:45:52;;;;;;;2.42;0.70;;;;;;;;;;5061263;28;20053;-89
2023/07/19 09:48:19;;;;;;;2.60;0.98;;;;;;;;;;5028992;28;20042;-88
2023/07/19 09:50:49;;;;;;;1.30;0.75;;;;;;;;;;5028610;28;20053;-86
2023/07/19 09:53:15;;;;;;;2.15;0.77;;;;;;;;;;5028961;28;20491;-90
2023/07/19 09:55:41;;;;;;;4.82;1.65;;;;;;;;;;5044225;28;20494;-86
2023/07/19 09:58:13;;;;;;;2.95;1.30;;;;;;;;;;5061581;28;20033;-86
2023/07/19 10:00:39;;;;;;;1.95;0.82;;;;;;;;;;5028694;28;20076;-90
2023/07/19 10:03:09;;;;;;;2.42;1.38;;;;;;;;;;5061396;28;20402;-88
2023/07/19 10:05:38;;;;;;;2.55;1.05;;;;;;;;;;5060630;28;20081;-88
2023/07/19 10:08:05;;;;;;;2.30;0.90;;;;;;;;;;5061134;28;20041;-88
2023/07/19 10:10:41;;;;;;;2.30;1.17;;;;;;;;;;5060761;28;20099;-90
2023/07/19 10:13:07;;;;;;;2.17;0.88;;;;;;;;;;5056198;28;20056;-89
2023/07/19 10:15:35;;;;;;;1.55;1.10;;;;;;;;;;5047018;28;20045;-86
2023/07/19 10:18:02;;;;;;;2.10;1.05;;;;;;;;;;5049076;28;20051;-85
2023/07/19 10:20:35;;;;;;;2.15;1.00;;;;;;;;;;5045649;28;20047;-86
2023/07/19 10:23:04;;;;;;;4.38;1.30;;;;;;;;;;5047953;28;20095;-86
2023/07/19 10:25:34;;;;;;;4.95;0.90;;;;;;;;;;5048440;28;20050;-88
2023/07/19 10:28:05;;;;;;;1.20;0.80;;;;;;;;;;5050049;28;20501;-90
2023/07/19 10:30:49;;;;;;;1.58;0.70;;;;;;;;;;5049338;28;20049;-90
2023/07/19 10:33:17;;;;;;;1.50;0.70;;;;;;;;;;5052107;28;20037;-88
2023/07/19 10:35:43;;;;;;;2.03;0.70;;;;;;;;;;5051066;28;20141;-88
2023/07/19 10:38:17;;;;;;;1.40;0.90;;;;;;;;;;5052676;28;20448;-89
2023/07/19 10:40:45;;;;;;;1.88;1.02;;;;;;;;;;5041290;28;20052;-90
2023/07/19 10:43:11;;;;;;;2.58;0.75;;;;;;;;;;5032209;28;20045;-90
2023/07/19 10:45:38;;;;;;;0.70;0.60;;;;;;;;;;5031512;28;20092;-86
2023/07/19 10:48:05;;;;;;;0.95;0.80;;;;;;;;;;5064879;28;20041;-87
2023/07/19 10:50:31;;;;;;;1.02;0.80;;;;;;;;;;5046091;28;20132;-89
2023/07/19 10:52:57;;;;;;;2.10;1.00;;;;;;;;;;5064239;28;20041;-89
2023/07/19 10:55:23;;;;;;;2.08;1.00;;;;;;;;;;5032841;28;20402;-92
2023/07/19 10:57:50;;;;;;;2.13;1.40;;;;;;;;;;5052206;28;20042;-95
2023/07/19 11:00:16;;;;;;;3.47;1.15;;;;;;;;;;5074194;28;20569;-93
2023/07/19 11:02:42;;;;;;;1.17;0.98;;;;;;;;;;5062570;28;20065;-96
2023/07/19 11:05:09;;;;;;;1.10;0.90;;;;;;;;;;5047604;28;20037;-95
2023/07/19 11:07:35;;;;;;;1.17;0.88;;;;;;;;;;5048863;28;20043;-92
2023/07/19 11:10:08;;;;;;;0.88;0.75;;;;;;;;;;5048309;28;20047;-93
2023/07/19 11:12:34;;;;;;;1.80;0.80;;;;;;;;;;5055626;28;20526;-92
2023/07/19 11:15:01;;;;;;;1.52;0.60;;;;;;;;;;5051324;28;20044;-89
2023/07/19 11:17:30;;;;;;;1.15;0.70;;;;;;;;;;5052632;28;20049;-91
2023/07/19 11:19:58;;;;;;;2.10;0.73;;;;;;;;;;5035169;28;20049;-94
2023/07/19 11:22:25;;;;;;;1.20;0.93;;;;;;;;;;5048112;28;20053;-96
2023/07/19 11:24:53;;;;;;;2.80;1.52;;;;;;;;;;5020899;28;20056;-94
2023/07/19 11:27:35;;;;;;;1.63;0.90;;;;;;;;;;5039945;28;20067;-93
2023/07/19 11:30:02;;;;;;;2.38;0.80;;;;;;;;;;5028700;28;20049;-95
2023/07/19 11:32:28;;;;;;;2.17;1.05;;;;;;;;;;5040034;28;20044;-95
2023/07/19 11:34:56;;;;;;;2.03;1.10;;;;;;;;;;5037998;28;20043;-94
2023/07/19 11:37:24;;;;;;;2.10;1.33;;;;;;;;;;5037276;28;20044;-95
2023/07/19 11:39:51;;;;;;;2.17;1.02;;;;;;;;;;5035341;28;20363;-96
2023/07/19 11:42:36;;;;;;;1.88;0.98;;;;;;;;;;5034959;28;20099;-92
2023/07/19 11:45:08;;;;;;;2.05;1.17;;;;;;;;;;5037978;28;20033;-95
2023/07/19 11:47:34;;;;;;;2.72;1.23;;;;;;;;;;5053555;28;20084;-93
2023/07/19 11:50:00;;;;;;;1.73;1.50;;;;;;;;;;5051489;28;20041;-94
2023/07/19 11:52:26;;;;;;;1.60;1.25;;;;;;;;;;5036008;28;20044;-94
2023/07/19 11:54:53;;;;;;;2.15;1.80;;;;;;;;;;5053348;28;20048;-95
2023/07/19 11:57:19;;;;;;;3.50;1.40;;;;;;;;;;5035484;28;20086;-93
2023/07/19 11:59:45;;;;;;;1.73;1.20;;;;;;;;;;5043704;28;20052;-91
2023/07/19 12:02:11;;;;;;;3.08;1.80;;;;;;;;;;5046660;28;20049;-92
2023/07/19 12:04:37;;;;;;;5.32;2.13;;;;;;;;;;5079994;28;20067;-91
2023/07/19 12:07:04;;;;;;;2.55;1.77;;;;;;;;;;5049807;28;20045;-92
2023/07/19 12:09:31;;;;;;;2.20;1.45;;;;;;;;;;5043095;28;20045;-92
2023/07/19 12:11:57;;;;;;;2.45;2.20;;;;;;;;;;5050982;28;20061;-90
2023/07/19 12:14:23;;;;;;;2.42;1.88;;;;;;;;;;5035059;28;20049;-89
2023/07/19 12:16:49;;;;;;;2.45;1.73;;;;;;;;;;5029916;28;20033;-90
2023/07/19 12:19:15;;;;;;;3.17;1.95;;;;;;;;;;5030431;28;20116;-89
2023/07/19 12:21:42;;;;;;;3.20;2.20;;;;;;;;;;5029230;28;20045;-90
2023/07/19 12:24:08;;;;;;;4.45;2.25;;;;;;;;;;5045283;28;20041;-91
2023/07/19 12:26:35;;;;;;;3.42;2.03;;;;;;;;;;5050696;28;20135;-89
2023/07/19 12:29:02;;;;;;;3.28;2.25;;;;;;;;;;5050401;28;20049;-89
2023/07/19 12:31:28;;;;;;;3.13;2.38;;;;;;;;;;5047898;28;20045;-91
2023/07/19 12:33:56;;;;;;;3.55;2.25;;;;;;;;;;5031653;28;20525;-91
2023/07/19 12:36:23;;;;;;;3.63;2.10;;;;;;;;;;5035633;28;20060;-92
2023/07/19 12:38:49;;;;;;;4.00;2.22;;;;;;;;;;5012644;28;20132;-89
2023/07/19 12:41:15;;;;;;;6.20;2.95;;;;;;;;;;5029784;28;20076;-91
2023/07/19 12:43:41;;;;;;;3.58;1.90;;;;;;;;;;5029914;28;20103;-91
2023/07/19 12:46:07;;;;;;;2.05;1.67;;;;;;;;;;5030636;28;20041;-91
2023/07/19 12:48:33;;;;;;;2.05;1.40;;;;;;;;;;5063795;28;20437;-92
2023/07/19 12:51:02;;;;;;;1.98;1.35;;;;;;;;;;5063165;28;20049;-93
2023/07/19 12:53:28;;;;;;;1.38;1.20;;;;;;;;;;5030824;28;20045;-90
2023/07/19 12:55:55;;;;;;;2.90;1.30;;;;;;;;;;5030269;28;20390;-92
2023/07/19 12:58:22;;;;;;;2.75;1.50;;;;;;;;;;5013130;28;20037;-91
2023/07/19 13:00:48;;;;;;;2.35;1.60;;;;;;;;;;5030598;28;20049;-96
2023/07/19 13:03:14;;;;;;;4.63;1.77;;;;;;;;;;5023006;28;20037;-95
2023/07/19 13:05:40;;;;;;;2.35;1.98;;;;;;;;;;5029965;28;20041;-91
2023/07/19 13:08:06;;;;;;;3.20;2.22;;;;;;;;;;5031419;28;20132;-90
2023/07/19 13:10:32;;;;;;;4.22;3.03;;;;;;;;;;5013401;28;20049;-92
2023/07/19 13:12:58;;;;;;;5.80;2.38;;;;;;;;;;5014482;28;20137;-95
2023/07/19 13:15:25;;;;;;;2.88;1.88;;;;;;;;;;5047285;28;20037;-93
2023/07/19 13:17:51;;;;;;;2.45;2.22;;;;;;;;;;5050580;28;20040;-96
2023/07/19 13:20:17;;;;;;;3.63;2.35;;;;;;;;;;5050262;28;20094;-96
2023/07/19 13:22:43;;;;;;;3.95;2.17;;;;;;;;;;5049174;28;20041;-94
2023/07/19 13:25:09;;;;;;;3.33;2.25;;;;;;;;;;5033062;28;20045;-94
2023/07/19 13:27:36;;;;;;;3.63;2.13;;;;;;;;;;5034065;28;20490;-92
2023/07/19 13:30:02;;;;;;;3.25;2.10;;;;;;;;;;5048451;28;20382;-89
2023/07/19 13:32:28;;;;;;;2.33;2.00;;;;;;;;;;5048164;28;20045;-94
2023/07/19 13:34:54;;;;;;;6.38;2.25;;;;;;;;;;5048525;28;20037;-90
2023/07/19 13:37:20;;;;;;;2.30;1.83;;;;;;;;;;5049598;28;20044;-94
2023/07/19 13:39:46;;;;;;;3.10;2.05;;;;;;;;;;5049178;28;20362;-88
2023/07/19 13:42:12;;;;;;;3.63;1.80;;;;;;;;;;5049126;28;20091;-88
2023/07/19 13:44:38;;;;;;;6.07;1.90;;;;;;;;;;5048182;28;20413;-91
2023/07/19 13:47:04;;;;;;;4.25;2.13;;;;;;;;;;5049986;28;20033;-90
2023/07/19 13:49:30;;;;;;;3.13;1.65;;;;;;;;;;5033041;28;20486;-91
2023/07/19 13:51:57;;;;;;;4.57;1.60;;;;;;;;;;5049391;28;20401;-95
2023/07/19 13:54:23;;;;;;;4.47;2.65;;;;;;;;;;5034340;28;20028;-92
2023/07/19 13:56:49;;;;;;;4.13;1.80;;;;;;;;;;5047350;28;20478;-90
2023/07/19 13:59:15;;;;;;;1.98;1.60;;;;;;;;;;5048296;28;20037;-89
2023/07/19 14:01:41;;;;;;;2.78;1.95;;;;;;;;;;5049074;28;20057;-90
2023/07/19 14:04:07;;;;;;;4.57;1.88;;;;;;;;;;5047174;28;20044;-95
2023/07/19 14:06:33;;;;;;;3.20;2.10;;;;;;;;;;5064771;28;20049;-95
2023/07/19 14:09:00;;;;;;;2.50;2.00;;;;;;;;;;5065567;28;20124;-90
2023/07/19 14:11:26;;;;;;;4.38;2.30;;;;;;;;;;5033285;28;20052;-91
2023/07/19 14:13:52;;;;;;;3.17;2.33;;;;;;;;;;5066878;28;20060;-92
2023/07/19 14:16:18;;;;;;;4.55;2.03;;;;;;;;;;5033083;28;20034;-92
2023/07/19 14:18:45;;;;;;;2.95;1.60;;;;;;;;;;5031560;28;20045;-90
2023/07/19 14:21:11;;;;;;;1.92;1.77;;;;;;;;;;5031734;28;20048;-92
2023/07/19 14:23:37;;;;;;;2.10;1.70;;;;;;;;;;5030619;28;20529;-92
2023/07/19 14:26:03;;;;;;;2.10;1.63;;;;;;;;;;5046889;28;20041;-91
2023/07/19 14:28:29;;;;;;;2.42;1.63;;;;;;;;;;5052262;28;20379;-88
2023/07/19 14:30:55;;;;;;;2.78;1.45;;;;;;;;;;5050868;28;20439;-89
2023/07/19 14:33:22;;;;;;;4.85;2.10;;;;;;;;;;5034305;28;20134;-93
2023/07/19 14:35:48;;;;;;;2.78;2.33;;;;;;;;;;5037829;28;20045;-88
2023/07/19 14:38:16;;;;;;;3.00;1.75;;;;;;;;;;5066598;28;20091;-90